オークランド の空港の天気 - METARとTAF

オークランド国際空港 ( NZAA / AKL ) - ニュージーランド オークランド|オークランド
飛行場実況気象(Metar)
観測時間01/22 06:30 NZDT (01/21 17:30 UTC)
風向・風速北 5m/s
視程10km以上
天気現象弱い雨
全天の4割程度の雲 雲底高度 1430m
全天の8割程度の雲 雲底高度 2130m
気温20℃
湿度94%
気圧1016hPa
METARNZAA 211730Z AUTO 35009KT 9999 -RA SCT047/// BKN070/// 20/19 Q1016 TEMPO 5000 RA BKN010
過去の天気等 Google飛行場航空写真 Wunderground天気予報

過去48時間のMETAR

飛行場予報(TAF)
発表時間: 1/22 06:05 NZDT (1/21 17:05 UTC)
予報対象時間: 22日7時 NZDT ~ 23日7時 NZDT
風向・風速北北東 4m/s
視程10km以上
天気現象弱い雨
全天の4割程度の雲 雲底高度 370m
全天の8割程度の雲 雲底高度 550m
22日7時 NZDT ~ 23日7時 NZDT に一時的に
視程6,000m
天気現象
全天の8割程度の雲 雲底高度 370m
全天の4割程度の塔状積雲 雲底高度 610m
22日12時 NZDT ~ 22日24時 NZDT に 確率 40% で一時的に
視程4,000m
天気現象強い雨
全天の8割程度の雲 雲底高度 240m
全天の8割程度の塔状積雲 雲底高度 610m
TAF NZAA 211705Z 2118/2218 03008KT 9999 -RA SCT012 BKN018
TEMPO 2118/2218 6000 RA BKN012 SCT020TCU
PROB40 TEMPO 2123/2211 4000 +RA BKN008 BKN020TCU